sensor_id;sensor_type;location;lat;lon;timestamp;pressure;altitude;pressure_sealevel;temperature;humidity
7105;BME280;3594;42.152;24.714;2023-04-26T00:00:12;-23522.09;;;12.39;100.00
7105;BME280;3594;42.152;24.714;2023-04-26T00:02:38;-23836.31;;;12.20;100.00
7105;BME280;3594;42.152;24.714;2023-04-26T00:05:05;-23844.72;;;12.51;100.00
7105;BME280;3594;42.152;24.714;2023-04-26T00:07:31;-23843.50;;;12.46;100.00
7105;BME280;3594;42.152;24.714;2023-04-26T00:09:57;-23841.00;;;12.37;100.00
7105;BME280;3594;42.152;24.714;2023-04-26T00:12:22;-23839.34;;;12.31;100.00
7105;BME280;3594;42.152;24.714;2023-04-26T00:14:48;-23839.75;;;12.32;100.00
7105;BME280;3594;42.152;24.714;2023-04-26T00:17:13;-23834.94;;;12.15;100.00
7105;BME280;3594;42.152;24.714;2023-04-26T00:19:38;-23515.19;;;12.14;100.00
7105;BME280;3594;42.152;24.714;2023-04-26T00:22:04;-23515.75;;;12.16;100.00
7105;BME280;3594;42.152;24.714;2023-04-26T00:24:30;-23832.84;;;12.07;100.00
7105;BME280;3594;42.152;24.714;2023-04-26T00:26:56;-23831.06;;;12.01;100.00
7105;BME280;3594;42.152;24.714;2023-04-26T00:29:22;-24159.72;;;12.34;100.00
7105;BME280;3594;42.152;24.714;2023-04-26T00:31:47;-24155.78;;;12.20;100.00
7105;BME280;3594;42.152;24.714;2023-04-26T00:34:13;-24148.03;;;11.92;100.00
7105;BME280;3594;42.152;24.714;2023-04-26T00:36:38;-24157.31;;;12.25;100.00
7105;BME280;3594;42.152;24.714;2023-04-26T00:39:04;-24150.00;;;11.99;100.00
7105;BME280;3594;42.152;24.714;2023-04-26T00:41:29;-24160.56;;;12.37;100.00
7105;BME280;3594;42.152;24.714;2023-04-26T00:43:54;-24154.66;;;12.16;100.00
7105;BME280;3594;42.152;24.714;2023-04-26T00:46:21;-23842.25;;;12.42;100.00
7105;BME280;3594;42.152;24.714;2023-04-26T00:48:46;-23841.69;;;12.39;100.00
7105;BME280;3594;42.152;24.714;2023-04-26T00:51:12;-23833.00;;;12.08;100.00
7105;BME280;3594;42.152;24.714;2023-04-26T00:53:38;-23841.69;;;12.39;100.00
7105;BME280;3594;42.152;24.714;2023-04-26T00:56:08;-23519.25;;;12.29;100.00
7105;BME280;3594;42.152;24.714;2023-04-26T00:58:36;-22882.03;;;12.36;100.00
7105;BME280;3594;42.152;24.714;2023-04-26T01:01:01;-20639.63;;;12.18;100.00
7105;BME280;3594;42.152;24.714;2023-04-26T01:03:27;-21920.47;;;12.26;100.00
7105;BME280;3594;42.152;24.714;2023-04-26T01:05:53;-22554.19;;;12.04;100.00
7105;BME280;3594;42.152;24.714;2023-04-26T01:08:19;-22228.41;;;11.79;100.00
7105;BME280;3594;42.152;24.714;2023-04-26T01:10:46;-22555.84;;;12.11;100.00
7105;BME280;3594;42.152;24.714;2023-04-26T01:13:13;-21589.50;;;11.79;100.00
7105;BME280;3594;42.152;24.714;2023-04-26T01:15:43;-21269.53;;;11.77;100.00
7105;BME280;3594;42.152;24.714;2023-04-26T01:18:09;-19674.19;;;11.89;100.00
7105;BME280;3594;42.152;24.714;2023-04-26T01:20:35;-17758.16;;;12.06;100.00
7105;BME280;3594;42.152;24.714;2023-04-26T01:23:00;-17436.59;;;11.97;100.00
7105;BME280;3594;42.152;24.714;2023-04-26T01:25:26;-17756.03;;;11.94;100.00
7105;BME280;3594;42.152;24.714;2023-04-26T01:27:52;-17433.66;;;11.80;100.00
7105;BME280;3594;42.152;24.714;2023-04-26T01:30:17;-18714.47;;;11.87;100.00
7105;BME280;3594;42.152;24.714;2023-04-26T01:32:43;-19030.41;;;11.68;100.00
7105;BME280;3594;42.152;24.714;2023-04-26T01:35:08;-18714.56;;;11.88;100.00
7105;BME280;3594;42.152;24.714;2023-04-26T01:37:34;-19352.31;;;11.79;100.00
7105;BME280;3594;42.152;24.714;2023-04-26T01:39:59;-19349.25;;;11.64;100.00
7105;BME280;3594;42.152;24.714;2023-04-26T01:42:25;-19344.38;;;11.39;100.00
7105;BME280;3594;42.152;24.714;2023-04-26T01:44:50;-20305.38;;;11.51;100.00
7105;BME280;3594;42.152;24.714;2023-04-26T01:47:16;-21263.66;;;11.51;100.00
7105;BME280;3594;42.152;24.714;2023-04-26T01:49:41;-21581.69;;;11.46;100.00
7105;BME280;3594;42.152;24.714;2023-04-26T01:52:07;-20946.66;;;11.62;100.00
7105;BME280;3594;42.152;24.714;2023-04-26T01:54:32;-20944.25;;;11.51;100.00
7105;BME280;3594;42.152;24.714;2023-04-26T01:56:58;-20299.25;;;11.23;100.00
7105;BME280;3594;42.152;24.714;2023-04-26T01:59:23;-19667.00;;;11.55;100.00
7105;BME280;3594;42.152;24.714;2023-04-26T02:01:48;-19342.03;;;11.28;100.00
7105;BME280;3594;42.152;24.714;2023-04-26T02:04:14;-19981.81;;;11.32;100.00
7105;BME280;3594;42.152;24.714;2023-04-26T02:06:39;-20294.63;;;11.02;100.00
7105;BME280;3594;42.152;24.714;2023-04-26T02:09:06;-19019.09;;;11.10;100.00
7105;BME280;3594;42.152;24.714;2023-04-26T02:11:33;-18067.31;;;11.46;100.00
7105;BME280;3594;42.152;24.714;2023-04-26T02:13:59;-18385.72;;;11.39;100.00
7105;BME280;3594;42.152;24.714;2023-04-26T02:16:24;-18379.72;;;11.07;100.00
7105;BME280;3594;42.152;24.714;2023-04-26T02:18:51;-17103.16;;;11.16;100.00
7105;BME280;3594;42.152;24.714;2023-04-26T02:21:17;-17103.75;;;11.19;100.00
7105;BME280;3594;42.152;24.714;2023-04-26T02:23:43;-15504.69;;;11.15;100.00
7105;BME280;3594;42.152;24.714;2023-04-26T02:26:09;-15185.75;;;11.21;100.00
7105;BME280;3594;42.152;24.714;2023-04-26T02:28:36;-14544.09;;;11.05;100.00
7105;BME280;3594;42.152;24.714;2023-04-26T02:31:02;-11345.38;;;11.17;100.00
7105;BME280;3594;42.152;24.714;2023-04-26T02:33:27;-12946.97;;;11.29;100.00
7105;BME280;3594;42.152;24.714;2023-04-26T02:35:52;-10707.59;;;11.60;100.00
7105;BME280;3594;42.152;24.714;2023-04-26T02:38:18;-12307.06;;;11.32;100.00
7105;BME280;3594;42.152;24.714;2023-04-26T02:40:43;-14229.72;;;11.51;100.00
7105;BME280;3594;42.152;24.714;2023-04-26T02:43:09;-16147.41;;;11.37;100.00
7105;BME280;3594;42.152;24.714;2023-04-26T02:45:44;-16786.47;;;11.34;100.00
7105;BME280;3594;42.152;24.714;2023-04-26T02:48:09;-18063.94;;;11.27;100.00
7105;BME280;3594;42.152;24.714;2023-04-26T02:50:35;-19024.47;;;11.37;100.00
7105;BME280;3594;42.152;24.714;2023-04-26T02:53:00;-19658.66;;;11.14;100.00
7105;BME280;3594;42.152;24.714;2023-04-26T02:55:27;-19977.13;;;11.10;100.00
7105;BME280;3594;42.152;24.714;2023-04-26T02:57:53;-19973.59;;;10.93;100.00
7105;BME280;3594;42.152;24.714;2023-04-26T03:00:18;-20298.59;;;11.20;100.00
7105;BME280;3594;42.152;24.714;2023-04-26T03:02:44;-20620.78;;;11.33;100.00
7105;BME280;3594;42.152;24.714;2023-04-26T03:05:09;-20301.31;;;11.33;100.00
7105;BME280;3594;42.152;24.714;2023-04-26T03:07:35;-20618.56;;;11.23;100.00
7105;BME280;3594;42.152;24.714;2023-04-26T03:10:01;-20930.25;;;10.90;100.00
7105;BME280;3594;42.152;24.714;2023-04-26T03:12:27;-21245.66;;;10.74;100.00
7105;BME280;3594;42.152;24.714;2023-04-26T03:14:52;-21253.31;;;11.07;100.00
7105;BME280;3594;42.152;24.714;2023-04-26T03:17:18;-21575.31;;;11.19;100.00
7105;BME280;3594;42.152;24.714;2023-04-26T03:19:43;-21576.66;;;11.25;100.00
7105;BME280;3594;42.152;24.714;2023-04-26T03:22:08;-21565.97;;;10.80;100.00
7105;BME280;3594;42.152;24.714;2023-04-26T03:24:35;-21565.25;;;10.77;100.00
7105;BME280;3594;42.152;24.714;2023-04-26T03:27:00;-21249.44;;;10.90;100.00
7105;BME280;3594;42.152;24.714;2023-04-26T03:29:26;-21244.25;;;10.68;100.00
7105;BME280;3594;42.152;24.714;2023-04-26T03:31:51;-21561.38;;;10.60;100.00
7105;BME280;3594;42.152;24.714;2023-04-26T03:34:17;-21562.59;;;10.66;100.00
7105;BME280;3594;42.152;24.714;2023-04-26T03:36:42;-21562.72;;;10.66;100.00
7105;BME280;3594;42.152;24.714;2023-04-26T03:39:07;-21879.38;;;10.57;100.00
7105;BME280;3594;42.152;24.714;2023-04-26T03:41:34;-22202.47;;;10.74;100.00
7105;BME280;3594;42.152;24.714;2023-04-26T03:44:01;-22197.69;;;10.55;100.00
7105;BME280;3594;42.152;24.714;2023-04-26T03:46:26;-22204.84;;;10.84;100.00
7105;BME280;3594;42.152;24.714;2023-04-26T03:48:52;-22516.34;;;10.54;100.00
7105;BME280;3594;42.152;24.714;2023-04-26T03:51:17;-22201.72;;;10.71;100.00
7105;BME280;3594;42.152;24.714;2023-04-26T03:53:42;-22516.59;;;10.55;100.00
7105;BME280;3594;42.152;24.714;2023-04-26T03:56:10;-22836.63;;;10.60;100.00
7105;BME280;3594;42.152;24.714;2023-04-26T03:58:36;-22836.25;;;10.59;100.00
7105;BME280;3594;42.152;24.714;2023-04-26T04:01:01;-22205.09;;;10.85;100.00
7105;BME280;3594;42.152;24.714;2023-04-26T04:03:27;-21875.47;;;10.41;100.00
7105;BME280;3594;42.152;24.714;2023-04-26T04:05:54;-21887.97;;;10.92;100.00
7105;BME280;3594;42.152;24.714;2023-04-26T04:08:20;-21570.88;;;11.00;100.00
7105;BME280;3594;42.152;24.714;2023-04-26T04:10:45;-21564.50;;;10.74;100.00
7105;BME280;3594;42.152;24.714;2023-04-26T04:13:11;-20933.69;;;11.05;100.00
7105;BME280;3594;42.152;24.714;2023-04-26T04:15:36;-20925.66;;;10.70;100.00
7105;BME280;3594;42.152;24.714;2023-04-26T04:18:02;-21557.31;;;10.43;100.00
7105;BME280;3594;42.152;24.714;2023-04-26T04:20:28;-21239.91;;;10.49;100.00
7105;BME280;3594;42.152;24.714;2023-04-26T04:22:53;-21250.25;;;10.94;100.00
7105;BME280;3594;42.152;24.714;2023-04-26T04:25:19;-20935.28;;;11.12;100.00
7105;BME280;3594;42.152;24.714;2023-04-26T04:27:47;-21253.44;;;11.07;100.00
7105;BME280;3594;42.152;24.714;2023-04-26T04:30:13;-20297.59;;;11.16;100.00
7105;BME280;3594;42.152;24.714;2023-04-26T04:32:38;-19976.16;;;11.05;100.00
7105;BME280;3594;42.152;24.714;2023-04-26T04:35:05;-19974.34;;;10.97;100.00
7105;BME280;3594;42.152;24.714;2023-04-26T04:37:31;-19344.47;;;11.40;100.00
7105;BME280;3594;42.152;24.714;2023-04-26T04:39:59;-19019.81;;;11.14;100.00
7105;BME280;3594;42.152;24.714;2023-04-26T04:42:25;-16474.38;;;11.83;100.00
7105;BME280;3594;42.152;24.714;2023-04-26T04:44:53;-12958.88;;;12.51;100.00
7105;BME280;3594;42.152;24.714;2023-04-26T04:47:18;-11673.38;;;12.20;100.00
7105;BME280;3594;42.152;24.714;2023-04-26T04:49:44;-13599.72;;;12.46;100.00
7105;BME280;3594;42.152;24.714;2023-04-26T04:52:09;-14242.63;;;12.61;100.00
7105;BME280;3594;42.152;24.714;2023-04-26T04:54:35;-10395.44;;;13.10;100.00
7105;BME280;3594;42.152;24.714;2023-04-26T04:57:00;-5250.56;;;13.25;100.00
7105;BME280;3594;42.152;24.714;2023-04-26T04:59:26;-8146.81;;;13.69;100.00
7105;BME280;3594;42.152;24.714;2023-04-26T05:01:51;-8790.78;;;13.84;100.00
7105;BME280;3594;42.152;24.714;2023-04-26T05:04:16;-5247.66;;;14.26;100.00
7105;BME280;3594;42.152;24.714;2023-04-26T05:06:42;-2023.97;;;14.04;100.00
7105;BME280;3594;42.152;24.714;2023-04-26T05:09:08;-5893.00;;;13.91;100.00
7105;BME280;3594;42.152;24.714;2023-04-26T05:11:33;-2667.16;;;14.32;100.00
7105;BME280;3594;42.152;24.714;2023-04-26T05:13:59;1525.88;;;14.00;100.00
7105;BME280;3594;42.152;24.714;2023-04-26T05:16:24;-85.81;;;14.23;100.00
7105;BME280;3594;42.152;24.714;2023-04-26T05:18:50;-3956.75;;;14.48;100.00
7105;BME280;3594;42.152;24.714;2023-04-26T05:21:15;-3956.91;;;14.45;100.00
7105;BME280;3594;42.152;24.714;2023-04-26T05:23:41;-2987.84;;;14.62;100.00
7105;BME280;3594;42.152;24.714;2023-04-26T05:26:06;-1047.06;;;14.97;100.00
7105;BME280;3594;42.152;24.714;2023-04-26T05:28:32;11578.41;;;14.89;100.00
7105;BME280;3594;42.152;24.714;2023-04-26T05:30:58;17435.91;;;15.23;100.00
7105;BME280;3594;42.152;24.714;2023-04-26T05:33:26;21668.81;;;15.31;100.00
7105;BME280;3594;42.152;24.714;2023-04-26T05:35:52;29816.50;;;15.28;100.00
7105;BME280;3594;42.152;24.714;2023-04-26T05:38:18;39007.97;;;14.73;100.00
7105;BME280;3594;42.152;24.714;2023-04-26T05:40:44;32428.44;;;15.28;100.00
7105;BME280;3594;42.152;24.714;2023-04-26T05:43:09;30806.94;;;15.46;100.00
7105;BME280;3594;42.152;24.714;2023-04-26T05:45:35;49513.31;;;15.43;100.00
7105;BME280;3594;42.152;24.714;2023-04-26T05:48:00;43477.72;;;15.68;100.00
7105;BME280;3594;42.152;24.714;2023-04-26T05:50:25;51826.34;;;15.65;100.00
7105;BME280;3594;42.152;24.714;2023-04-26T05:52:51;54550.47;;;15.76;100.00
7105;BME280;3594;42.152;24.714;2023-04-26T05:55:16;52868.66;;;15.91;100.00
7105;BME280;3594;42.152;24.714;2023-04-26T05:57:44;54170.47;;;15.82;100.00
7105;BME280;3594;42.152;24.714;2023-04-26T06:00:10;52558.66;;;15.58;100.00
7105;BME280;3594;42.152;24.714;2023-04-26T06:02:36;54420.06;;;16.03;100.00
7105;BME280;3594;42.152;24.714;2023-04-26T06:05:02;56401.28;;;16.60;100.00
7105;BME280;3594;42.152;24.714;2023-04-26T06:07:29;55641.72;;;16.75;100.00
7105;BME280;3594;42.152;24.714;2023-04-26T06:09:54;57263.25;;;16.96;100.00
7105;BME280;3594;42.152;24.714;2023-04-26T06:12:20;57808.84;;;16.61;100.00
7105;BME280;3594;42.152;24.714;2023-04-26T06:14:46;57453.47;;;16.66;100.00
7105;BME280;3594;42.152;24.714;2023-04-26T06:17:11;56306.59;;;16.63;100.00
7105;BME280;3594;42.152;24.714;2023-04-26T06:19:36;57561.97;;;16.32;100.00
7105;BME280;3594;42.152;24.714;2023-04-26T06:22:02;57912.44;;;16.38;100.00
7105;BME280;3594;42.152;24.714;2023-04-26T06:24:27;58420.84;;;16.36;100.00
7105;BME280;3594;42.152;24.714;2023-04-26T06:26:52;58841.91;;;16.56;100.00
7105;BME280;3594;42.152;24.714;2023-04-26T06:29:19;58571.47;;;16.49;100.00
7105;BME280;3594;42.152;24.714;2023-04-26T06:31:45;59031.13;;;16.57;100.00
7105;BME280;3594;42.152;24.714;2023-04-26T06:34:10;58400.22;;;16.87;100.00
7105;BME280;3594;42.152;24.714;2023-04-26T06:36:36;58592.19;;;16.90;100.00
7105;BME280;3594;42.152;24.714;2023-04-26T06:39:01;58169.47;;;16.93;100.00
7105;BME280;3594;42.152;24.714;2023-04-26T06:41:27;59020.81;;;16.74;100.00
7105;BME280;3594;42.152;24.714;2023-04-26T06:43:52;58887.84;;;16.75;100.00
7105;BME280;3594;42.152;24.714;2023-04-26T06:46:18;59045.53;;;16.40;100.00
7105;BME280;3594;42.152;24.714;2023-04-26T06:48:43;58476.38;;;16.73;100.00
7105;BME280;3594;42.152;24.714;2023-04-26T06:51:08;58153.44;;;16.80;100.00
7105;BME280;3594;42.152;24.714;2023-04-26T06:53:34;58322.13;;;16.71;100.00
7105;BME280;3594;42.152;24.714;2023-04-26T06:56:01;57945.91;;;16.38;100.00
7105;BME280;3594;42.152;24.714;2023-04-26T06:58:26;55822.69;;;16.36;100.00
7105;BME280;3594;42.152;24.714;2023-04-26T07:00:51;56794.16;;;16.32;100.00
7105;BME280;3594;42.152;24.714;2023-04-26T07:03:17;57965.81;;;17.17;100.00
7105;BME280;3594;42.152;24.714;2023-04-26T07:05:42;57063.47;;;17.05;100.00
7105;BME280;3594;42.152;24.714;2023-04-26T07:08:08;58178.03;;;17.10;100.00
7105;BME280;3594;42.152;24.714;2023-04-26T07:10:33;59240.03;;;16.84;100.00
7105;BME280;3594;42.152;24.714;2023-04-26T07:12:59;59140.50;;;16.92;100.00
7105;BME280;3594;42.152;24.714;2023-04-26T07:15:24;59719.22;;;17.21;100.00
7105;BME280;3594;42.152;24.714;2023-04-26T07:17:50;60077.94;;;17.14;100.00
7105;BME280;3594;42.152;24.714;2023-04-26T07:20:15;59890.09;;;17.07;100.00
7105;BME280;3594;42.152;24.714;2023-04-26T07:22:44;59837.78;;;17.04;100.00
7105;BME280;3594;42.152;24.714;2023-04-26T07:25:10;60192.41;;;17.19;100.00
7105;BME280;3594;42.152;24.714;2023-04-26T07:27:36;60104.91;;;17.36;100.00
7105;BME280;3594;42.152;24.714;2023-04-26T07:30:02;60087.41;;;17.37;100.00
7105;BME280;3594;42.152;24.714;2023-04-26T07:32:27;60469.34;;;17.04;100.00
7105;BME280;3594;42.152;24.714;2023-04-26T07:34:53;60462.81;;;17.56;100.00
7105;BME280;3594;42.152;24.714;2023-04-26T07:37:18;60722.53;;;17.55;100.00
7105;BME280;3594;42.152;24.714;2023-04-26T07:39:43;60805.47;;;17.88;100.00
7105;BME280;3594;42.152;24.714;2023-04-26T07:42:09;60743.63;;;17.72;100.00
7105;BME280;3594;42.152;24.714;2023-04-26T07:44:34;60846.31;;;17.41;100.00
7105;BME280;3594;42.152;24.714;2023-04-26T07:47:00;60865.84;;;17.52;100.00
7105;BME280;3594;42.152;24.714;2023-04-26T07:49:25;60931.50;;;17.99;100.00
7105;BME280;3594;42.152;24.714;2023-04-26T07:51:50;60903.59;;;18.23;100.00
7105;BME280;3594;42.152;24.714;2023-04-26T07:54:16;60942.66;;;18.02;100.00
7105;BME280;3594;42.152;24.714;2023-04-26T07:56:42;61006.47;;;18.11;100.00
7105;BME280;3594;42.152;24.714;2023-04-26T07:59:07;61057.88;;;18.71;100.00
7105;BME280;3594;42.152;24.714;2023-04-26T08:01:33;61190.47;;;18.44;100.00
7105;BME280;3594;42.152;24.714;2023-04-26T08:03:58;61136.81;;;18.51;100.00
7105;BME280;3594;42.152;24.714;2023-04-26T08:06:24;61095.00;;;18.70;100.00
7105;BME280;3594;42.152;24.714;2023-04-26T08:08:49;61272.28;;;19.01;99.36
7105;BME280;3594;42.152;24.714;2023-04-26T08:11:17;61301.13;;;19.50;96.67
7105;BME280;3594;42.152;24.714;2023-04-26T08:13:42;61440.22;;;19.75;91.11
7105;BME280;3594;42.152;24.714;2023-04-26T08:16:11;61404.03;;;19.70;92.83
7105;BME280;3594;42.152;24.714;2023-04-26T08:18:36;61431.53;;;19.65;93.76
7105;BME280;3594;42.152;24.714;2023-04-26T08:21:02;61498.75;;;19.74;88.18
7105;BME280;3594;42.152;24.714;2023-04-26T08:23:28;61505.09;;;19.59;89.52
7105;BME280;3594;42.152;24.714;2023-04-26T08:25:53;61514.13;;;19.23;85.95
7105;BME280;3594;42.152;24.714;2023-04-26T08:28:19;61542.44;;;19.32;86.62
7105;BME280;3594;42.152;24.714;2023-04-26T08:30:45;61587.69;;;19.61;83.04
7105;BME280;3594;42.152;24.714;2023-04-26T08:33:10;61591.97;;;19.78;86.50
7105;BME280;3594;42.152;24.714;2023-04-26T08:35:36;61672.56;;;20.13;84.34
7105;BME280;3594;42.152;24.714;2023-04-26T08:38:01;61670.69;;;20.37;86.13
7105;BME280;3594;42.152;24.714;2023-04-26T08:40:27;61621.66;;;20.51;85.72
7105;BME280;3594;42.152;24.714;2023-04-26T08:42:52;61647.03;;;20.07;85.07
7105;BME280;3594;42.152;24.714;2023-04-26T08:45:21;61589.69;;;19.76;83.52
7105;BME280;3594;42.152;24.714;2023-04-26T08:47:52;61673.88;;;19.73;80.06
7105;BME280;3594;42.152;24.714;2023-04-26T08:50:22;61684.19;;;19.77;76.22
7105;BME280;3594;42.152;24.714;2023-04-26T08:52:50;61603.56;;;19.42;81.75
7105;BME280;3594;42.152;24.714;2023-04-26T08:55:17;61647.38;;;19.56;79.01
7105;BME280;3594;42.152;24.714;2023-04-26T08:57:45;61643.41;;;19.36;81.03
7105;BME280;3594;42.152;24.714;2023-04-26T09:00:12;61838.53;;;19.81;80.88
7105;BME280;3594;42.152;24.714;2023-04-26T09:02:45;61714.72;;;20.09;81.12
7105;BME280;3594;42.152;24.714;2023-04-26T09:05:11;61694.63;;;19.89;78.12
7105;BME280;3594;42.152;24.714;2023-04-26T09:07:42;61745.84;;;20.09;75.61
7105;BME280;3594;42.152;24.714;2023-04-26T09:10:10;61861.78;;;20.22;77.77
7105;BME280;3594;42.152;24.714;2023-04-26T09:12:36;61659.69;;;19.76;75.22
7105;BME280;3594;42.152;24.714;2023-04-26T09:15:05;61705.16;;;19.96;74.64
7105;BME280;3594;42.152;24.714;2023-04-26T09:17:36;61726.56;;;20.24;75.02
7105;BME280;3594;42.152;24.714;2023-04-26T09:20:22;61749.75;;;20.01;77.09
7105;BME280;3594;42.152;24.714;2023-04-26T09:22:50;61728.66;;;20.03;76.59
7105;BME280;3594;42.152;24.714;2023-04-26T09:25:18;61771.97;;;20.33;75.45
7105;BME280;3594;42.152;24.714;2023-04-26T09:27:44;61735.66;;;20.33;76.00
7105;BME280;3594;42.152;24.714;2023-04-26T09:30:15;61729.63;;;20.46;71.96
7105;BME280;3594;42.152;24.714;2023-04-26T09:35:36;61781.22;;;20.32;74.44
7105;BME280;3594;42.152;24.714;2023-04-26T09:40:30;61783.00;;;20.45;76.18
7105;BME280;3594;42.152;24.714;2023-04-26T09:43:01;61839.63;;;20.03;74.73
7105;BME280;3594;42.152;24.714;2023-04-26T09:45:28;61726.41;;;20.01;76.54
7105;BME280;3594;42.152;24.714;2023-04-26T09:47:55;61754.06;;;20.51;75.26
7105;BME280;3594;42.152;24.714;2023-04-26T09:50:36;61754.63;;;20.52;77.03
7105;BME280;3594;42.152;24.714;2023-04-26T09:53:01;61850.19;;;20.10;80.66
7105;BME280;3594;42.152;24.714;2023-04-26T09:55:30;61768.56;;;20.62;78.31
7105;BME280;3594;42.152;24.714;2023-04-26T09:57:57;61808.97;;;20.93;75.39
7105;BME280;3594;42.152;24.714;2023-04-26T10:00:26;61899.66;;;21.39;75.77
7105;BME280;3594;42.152;24.714;2023-04-26T10:02:53;61966.75;;;21.83;72.66
7105;BME280;3594;42.152;24.714;2023-04-26T10:05:19;61982.28;;;22.36;69.58
7105;BME280;3594;42.152;24.714;2023-04-26T10:07:46;61987.84;;;22.18;71.07
7105;BME280;3594;42.152;24.714;2023-04-26T10:10:12;62091.16;;;22.79;69.78
7105;BME280;3594;42.152;24.714;2023-04-26T10:12:40;62175.81;;;23.36;69.85
7105;BME280;3594;42.152;24.714;2023-04-26T10:15:10;62101.25;;;22.98;64.32
7105;BME280;3594;42.152;24.714;2023-04-26T10:17:39;62142.75;;;23.23;66.93
7105;BME280;3594;42.152;24.714;2023-04-26T10:20:08;62178.59;;;23.43;64.53
7105;BME280;3594;42.152;24.714;2023-04-26T10:22:45;62163.78;;;23.46;61.48
7105;BME280;3594;42.152;24.714;2023-04-26T10:25:14;62292.59;;;23.19;60.59
7105;BME280;3594;42.152;24.714;2023-04-26T10:30:19;61984.84;;;22.08;66.10
7105;BME280;3594;42.152;24.714;2023-04-26T10:35:16;61906.66;;;21.36;67.09
7105;BME280;3594;42.152;24.714;2023-04-26T10:40:25;61692.81;;;19.44;74.46
7105;BME280;3594;42.152;24.714;2023-04-26T10:45:35;61629.72;;;19.13;79.38
7105;BME280;3594;42.152;24.714;2023-04-26T10:48:28;61548.78;;;18.84;80.52
7105;BME280;3594;42.152;24.714;2023-04-26T10:59:14;61491.56;;;18.01;82.19
7105;BME280;3594;42.152;24.714;2023-04-26T11:01:43;61520.63;;;17.97;84.95
7105;BME280;3594;42.152;24.714;2023-04-26T11:04:10;61481.53;;;17.83;83.49
7105;BME280;3594;42.152;24.714;2023-04-26T11:06:52;61519.91;;;17.89;85.34
7105;BME280;3594;42.152;24.714;2023-04-26T11:09:37;61483.97;;;18.08;86.62
7105;BME280;3594;42.152;24.714;2023-04-26T11:12:06;61451.06;;;17.83;86.62
7105;BME280;3594;42.152;24.714;2023-04-26T11:14:35;61463.75;;;17.97;87.91
7105;BME280;3594;42.152;24.714;2023-04-26T11:17:04;61501.25;;;18.05;88.78
7105;BME280;3594;42.152;24.714;2023-04-26T11:19:31;61509.81;;;18.08;85.40
7105;BME280;3594;42.152;24.714;2023-04-26T11:21:58;61551.22;;;18.40;84.91
7105;BME280;3594;42.152;24.714;2023-04-26T11:24:26;61529.47;;;18.72;84.57
7105;BME280;3594;42.152;24.714;2023-04-26T11:26:51;61522.47;;;18.26;82.58
7105;BME280;3594;42.152;24.714;2023-04-26T11:29:20;61538.06;;;18.38;82.03
7105;BME280;3594;42.152;24.714;2023-04-26T11:31:57;61568.03;;;18.32;81.99
7105;BME280;3594;42.152;24.714;2023-04-26T11:36:58;61513.41;;;18.34;80.37
7105;BME280;3594;42.152;24.714;2023-04-26T11:39:25;61547.66;;;18.67;79.62
7105;BME280;3594;42.152;24.714;2023-04-26T11:42:03;61618.69;;;18.84;78.24
7105;BME280;3594;42.152;24.714;2023-04-26T11:44:29;61536.31;;;18.57;79.18
7105;BME280;3594;42.152;24.714;2023-04-26T11:46:54;61541.53;;;18.20;78.49
7105;BME280;3594;42.152;24.714;2023-04-26T11:49:20;61540.22;;;18.12;80.12
7105;BME280;3594;42.152;24.714;2023-04-26T11:51:47;61465.38;;;17.87;81.79
7105;BME280;3594;42.152;24.714;2023-04-26T11:54:28;61468.69;;;17.57;81.98
7105;BME280;3594;42.152;24.714;2023-04-26T11:56:55;61585.53;;;17.79;82.79
7105;BME280;3594;42.152;24.714;2023-04-26T11:59:25;61493.41;;;17.56;83.55
7105;BME280;3594;42.152;24.714;2023-04-26T12:01:54;61433.44;;;17.56;85.67
7105;BME280;3594;42.152;24.714;2023-04-26T12:04:28;61471.81;;;17.79;80.60
7105;BME280;3594;42.152;24.714;2023-04-26T12:06:55;61475.47;;;17.84;79.93
7105;BME280;3594;42.152;24.714;2023-04-26T12:09:27;61504.66;;;18.08;79.20
7105;BME280;3594;42.152;24.714;2023-04-26T12:11:59;61535.19;;;18.03;78.16
7105;BME280;3594;42.152;24.714;2023-04-26T12:14:37;61504.28;;;17.78;78.35
7105;BME280;3594;42.152;24.714;2023-04-26T12:17:04;61481.13;;;17.52;76.08
7105;BME280;3594;42.152;24.714;2023-04-26T12:19:37;61512.81;;;18.01;77.18
7105;BME280;3594;42.152;24.714;2023-04-26T12:22:06;61518.22;;;18.04;75.61
7105;BME280;3594;42.152;24.714;2023-04-26T12:24:33;61259.03;;;16.34;96.79
7105;BME280;3594;42.152;24.714;2023-04-26T12:26:59;61297.06;;;16.75;98.17
7105;BME280;3594;42.152;24.714;2023-04-26T12:29:25;61346.78;;;17.36;97.06
7105;BME280;3594;42.152;24.714;2023-04-26T12:31:52;61405.25;;;17.42;92.53
7105;BME280;3594;42.152;24.714;2023-04-26T12:34:18;61419.50;;;17.83;93.51
7105;BME280;3594;42.152;24.714;2023-04-26T12:36:43;61441.63;;;17.98;95.09
7105;BME280;3594;42.152;24.714;2023-04-26T12:39:10;61326.63;;;17.25;95.62
7105;BME280;3594;42.152;24.714;2023-04-26T12:41:38;61434.59;;;17.73;94.65
7105;BME280;3594;42.152;24.714;2023-04-26T12:44:04;61412.88;;;17.84;96.94
7105;BME280;3594;42.152;24.714;2023-04-26T12:46:30;61384.97;;;17.19;94.16
7105;BME280;3594;42.152;24.714;2023-04-26T12:48:56;61374.88;;;17.38;97.18
7105;BME280;3594;42.152;24.714;2023-04-26T12:51:22;61388.34;;;17.39;97.41
7105;BME280;3594;42.152;24.714;2023-04-26T12:53:48;61418.66;;;17.47;91.18
7105;BME280;3594;42.152;24.714;2023-04-26T12:56:15;61447.84;;;17.50;89.33
7105;BME280;3594;42.152;24.714;2023-04-26T12:58:41;61376.41;;;17.33;89.14
7105;BME280;3594;42.152;24.714;2023-04-26T13:01:06;61451.16;;;17.79;93.85
7105;BME280;3594;42.152;24.714;2023-04-26T13:03:32;61487.03;;;17.97;92.46
7105;BME280;3594;42.152;24.714;2023-04-26T13:05:57;61449.63;;;18.17;96.92
7105;BME280;3594;42.152;24.714;2023-04-26T13:08:23;61498.69;;;18.21;92.18
7105;BME280;3594;42.152;24.714;2023-04-26T13:10:48;61523.25;;;18.29;90.71
7105;BME280;3594;42.152;24.714;2023-04-26T13:13:14;61524.41;;;18.30;93.84
7105;BME280;3594;42.152;24.714;2023-04-26T13:15:40;61545.31;;;18.33;91.18
7105;BME280;3594;42.152;24.714;2023-04-26T13:18:05;61559.97;;;18.50;87.85
7105;BME280;3594;42.152;24.714;2023-04-26T13:20:31;61580.31;;;18.57;85.75
7105;BME280;3594;42.152;24.714;2023-04-26T13:22:56;61578.81;;;18.42;79.89